Indian Mountain, AK

9:06 AM AKDT on July 23, 2014 (GMT -0800)
Calhoun Memorial (PATA) Elev 220 ft | 65.18 °N, 152.11 °W | Change Station
Active Advisory: Special Statement

Current weather conditions updated 14 minutes ago

Light Rain
Light Rain Mist
53 °F
Feels Like 53 °F
N
5
Wind Variable Wind from South

Today is forecast to be Cooler than yesterday. Light rain.

Today
High -- | Low -- °F
--% Chance of Precip.
Yesterday
High -- | Low -- °F
Precip. -- in
4:25 AM 0:13 AM
Waning Crescent, 9% visible
Pressure 29.75 in
Visibility 2.0 miles
Clouds Few 500 ft
Overcast 2100 ft
Dew Point 52 °F
Humidity 96%
Rainfall 0.14 in
Snow Depth Not available.
UV 1 out of 12
Pollen Not available.
Air Quality Not available.
Flu Activity Not available.
METAR PATA 231652Z 18004KT 2SM -RA BR FEW005 OVC021 12/11 A2975 RMK AO2 RAB02 SLP075 VIS NE-E 1 BCFG E OVR TOWN P0002 T01170111

More Conditions Fewer Conditions

Pressure 29.75 in
Visibility 2.0 miles
Clouds Few 500 ft
Overcast 2100 ft
Dew Point 52 °F
Humidity 96%
Rainfall 0.14 in
Snow Depth Not available.
UV 1 out of 12
Pollen Not available.
Air Quality Not available.
Flu Activity Not available.
METAR PATA 231652Z 18004KT 2SM -RA BR FEW005 OVC021 12/11 A2975 RMK AO2 RAB02 SLP075 VIS NE-E 1 BCFG E OVR TOWN P0002 T01170111

More Conditions Fewer Conditions

10-Day Weather Forecast

Almanac

Astronomy

Jul. 23, 2014 Rise Set
Actual Time 4:25 AM AKDT 12:13 AM AKDT
Civil Twilight 2:53 AM AKDT 1:48 AM AKDT
Nautical Twilight Sun does not rise Sun does not rise
Astronomical Twilight Sun does not rise Sun does not rise
Moon 2:14 AM AKDT 9:30 PM AKDT
Length of Visible Light 22h 55m
Length of Day
19h 48m
Tomorrow will be 8m 8s shorter.
Waning Crescent, 9% of the Moon is Illuminated
Today
Waning Crescent
Jul 26
New
Aug 3
First Quarter
Aug 10
Full
Aug 17
Last Quarter

Today's Extremes

State Highs State Lows

Community

WunderPhotos

Upload Photos

1,736,674 photos uploaded!

Nearby

Snow Depth

Station Depth Elevation
Gobblers Knob 0 in 2030 ft
Coldfoot 0 in 1040 ft
Atigun Pass 0 in 4800 ft
Little Chena Ridge 1 in 2000 ft
Munson Ridge 1 in 3100 ft

Earthquake Activity

City Distance Mag. Time & Date
No recent earthquake activity has been reported nearby.
Minimum magnitude displayed is 2.5.

Coastal Water Temperatures

Place Temperature
No Stations Reporting

Nearby Weather Stations

There are no personal weather stations in this area.